createdAt,value
2018-08-25T00:01:59.689Z,99354.45
2018-08-25T00:04:25.627Z,99345.32
2018-08-25T00:06:51.585Z,99342.84
2018-08-25T00:09:17.516Z,99347.61
2018-08-25T00:11:43.468Z,99348.73
2018-08-25T00:14:09.402Z,99344.49
2018-08-25T00:16:35.347Z,99345.95
2018-08-25T00:19:01.301Z,99341.91
2018-08-25T00:21:27.365Z,99340.95
2018-08-25T00:23:53.310Z,99338.85
2018-08-25T00:26:19.271Z,99336.94
2018-08-25T00:28:45.224Z,99335.83
2018-08-25T00:31:11.175Z,99338.12
2018-08-25T00:33:37.131Z,99337.27
2018-08-25T00:36:03.111Z,99338.82
2018-08-25T00:38:29.075Z,99347.75
2018-08-25T00:40:55.025Z,99341.89
2018-08-25T00:43:20.949Z,99346.63
2018-08-25T00:45:46.900Z,99350.39
2018-08-25T00:48:12.844Z,99354.91
2018-08-25T00:50:38.816Z,99351.14
2018-08-25T00:53:04.757Z,99346.27
2018-08-25T00:55:30.729Z,99338.78
2018-08-25T00:57:56.672Z,99338.13
2018-08-25T01:00:22.636Z,99333.62
2018-08-25T01:02:48.566Z,99337.84
2018-08-25T01:05:14.548Z,99331.39
2018-08-25T01:07:40.718Z,99335.72
2018-08-25T01:10:06.642Z,99340.27
2018-08-25T01:12:32.565Z,99340.81
2018-08-25T01:14:58.494Z,99342.84
2018-08-25T01:17:24.465Z,99341.20
2018-08-25T01:19:50.419Z,99349.48
2018-08-25T01:22:16.365Z,99348.75
2018-08-25T01:24:42.293Z,99353.35
2018-08-25T01:27:08.220Z,99353.16
2018-08-25T01:29:34.168Z,99356.20
2018-08-25T01:32:00.126Z,99361.09
2018-08-25T01:34:26.081Z,99360.72
2018-08-25T01:36:52.053Z,99357.32
2018-08-25T01:39:17.994Z,99356.01
2018-08-25T01:41:43.944Z,99354.64
2018-08-25T01:44:09.901Z,99354.38
2018-08-25T01:46:35.864Z,99353.42
2018-08-25T01:49:01.795Z,99354.81
2018-08-25T01:51:27.795Z,99348.91
2018-08-25T01:53:53.772Z,99345.96
2018-08-25T01:56:19.724Z,99341.29
2018-08-25T01:58:45.676Z,99345.19
2018-08-25T02:01:11.645Z,99337.09
2018-08-25T02:03:37.601Z,99335.63
2018-08-25T02:06:03.571Z,99333.80
2018-08-25T02:08:29.514Z,99338.04
2018-08-25T02:10:55.452Z,99344.77
2018-08-25T02:13:21.392Z,99346.33
2018-08-25T02:15:47.330Z,99341.02
2018-08-25T02:18:13.281Z,99338.05
2018-08-25T02:20:39.235Z,99321.56
2018-08-25T02:23:05.204Z,99326.59
2018-08-25T02:25:31.143Z,99341.66
2018-08-25T02:27:57.094Z,99342.09
2018-08-25T02:30:23.060Z,99340.45
2018-08-25T02:32:49.008Z,99341.31
2018-08-25T02:35:14.963Z,99337.69
2018-08-25T02:37:40.903Z,99335.01
2018-08-25T02:40:06.963Z,99331.87
2018-08-25T02:42:32.912Z,99323.66
2018-08-25T02:44:58.922Z,99328.28
2018-08-25T02:47:24.888Z,99330.30
2018-08-25T02:49:50.845Z,99325.16
2018-08-25T02:52:16.795Z,99320.73
2018-08-25T02:54:42.753Z,99319.05
2018-08-25T02:57:08.700Z,99321.28
2018-08-25T02:59:34.660Z,99319.62
2018-08-25T03:02:00.622Z,99320.83
2018-08-25T03:04:26.579Z,99311.52
2018-08-25T03:06:52.576Z,99311.87
2018-08-25T03:09:18.515Z,99306.53
2018-08-25T03:11:44.486Z,99302.95
2018-08-25T03:14:10.453Z,99299.80
2018-08-25T03:16:36.432Z,99301.55
2018-08-25T03:19:02.361Z,99301.00
2018-08-25T03:21:28.297Z,99298.11
2018-08-25T03:23:54.244Z,99302.44
2018-08-25T03:26:20.198Z,99298.20
2018-08-25T03:28:46.136Z,99294.08
2018-08-25T03:31:12.074Z,99287.14
2018-08-25T03:33:38.049Z,99285.31
2018-08-25T03:36:04.001Z,99281.25
2018-08-25T03:38:29.963Z,99286.24
2018-08-25T03:40:55.893Z,99282.09
2018-08-25T03:43:21.867Z,99281.61
2018-08-25T03:45:47.823Z,99277.48
2018-08-25T03:48:13.811Z,99274.82
2018-08-25T03:50:39.743Z,99272.05
2018-08-25T03:53:05.685Z,99273.53
2018-08-25T03:55:31.689Z,99272.87
2018-08-25T03:57:57.613Z,99272.77
2018-08-25T04:00:23.555Z,99276.27
2018-08-25T04:02:49.558Z,99271.31
2018-08-25T04:05:15.532Z,99262.84
2018-08-25T04:07:41.491Z,99262.92
2018-08-25T04:10:07.438Z,99254.25
2018-08-25T04:12:33.421Z,99257.50
2018-08-25T04:14:59.411Z,99258.12
2018-08-25T04:17:25.349Z,99256.73
2018-08-25T04:19:51.291Z,99260.80
2018-08-25T04:22:17.309Z,99258.39
2018-08-25T04:24:43.174Z,99256.75
2018-08-25T04:27:09.119Z,99261.89
2018-08-25T04:29:35.093Z,99265.38
2018-08-25T04:32:01.064Z,99263.58
2018-08-25T04:34:26.990Z,99260.53
2018-08-25T04:36:52.965Z,99264.00
2018-08-25T04:39:18.915Z,99264.75
2018-08-25T04:41:44.883Z,99263.84
2018-08-25T04:44:10.839Z,99264.80
2018-08-25T04:46:36.824Z,99257.34
2018-08-25T04:49:02.800Z,99262.89
2018-08-25T04:51:28.764Z,99255.38
2018-08-25T04:53:54.747Z,99254.50
2018-08-25T04:56:20.686Z,99256.59
2018-08-25T04:58:46.666Z,99254.45
2018-08-25T05:01:12.594Z,99246.77
2018-08-25T05:03:38.571Z,99251.30
2018-08-25T05:06:04.536Z,99255.08
2018-08-25T05:08:30.503Z,99250.81
2018-08-25T05:10:56.457Z,99251.22
2018-08-25T05:13:22.428Z,99257.40
2018-08-25T05:15:48.380Z,99254.05
2018-08-25T05:18:14.325Z,99248.54
2018-08-25T05:20:40.290Z,99248.15
2018-08-25T05:23:06.373Z,99250.95
2018-08-25T05:25:32.363Z,99248.83
2018-08-25T05:27:58.323Z,99257.08
2018-08-25T05:30:24.287Z,99259.24
2018-08-25T05:32:50.245Z,99259.97
2018-08-25T05:35:16.220Z,99269.56
2018-08-25T05:37:42.193Z,99258.58
2018-08-25T05:40:08.159Z,99260.89
2018-08-25T05:42:34.115Z,99255.89
2018-08-25T05:45:00.159Z,99249.83
2018-08-25T05:47:27.238Z,99255.43
2018-08-25T05:49:53.166Z,99259.84
2018-08-25T05:52:19.120Z,99264.45
2018-08-25T05:54:45.063Z,99263.55
2018-08-25T05:57:11.047Z,99259.60
2018-08-25T05:59:36.991Z,99255.64
2018-08-25T06:02:02.934Z,99264.69
2018-08-25T06:04:28.872Z,99266.89
2018-08-25T06:06:54.825Z,99269.30
2018-08-25T06:09:20.781Z,99270.37
2018-08-25T06:11:46.737Z,99276.52
2018-08-25T06:14:12.699Z,99267.48
2018-08-25T06:16:39.636Z,99269.48
2018-08-25T06:19:05.599Z,99264.86
2018-08-25T06:21:31.550Z,99264.33
2018-08-25T06:23:57.504Z,99262.23
2018-08-25T06:26:23.433Z,99262.59
2018-08-25T06:28:49.379Z,99257.66
2018-08-25T06:31:15.364Z,99261.45
2018-08-25T06:33:41.337Z,99261.34
2018-08-25T06:36:07.337Z,99266.98
2018-08-25T06:38:33.308Z,99263.92
2018-08-25T06:40:59.262Z,99276.44
2018-08-25T06:43:26.337Z,99281.95
2018-08-25T06:45:52.262Z,99274.05
2018-08-25T06:48:18.212Z,99283.09
2018-08-25T06:50:47.330Z,99281.27
2018-08-25T06:53:13.345Z,99282.50
2018-08-25T06:55:39.337Z,99277.82
2018-08-25T06:58:05.302Z,99280.66
2018-08-25T07:00:31.288Z,99277.78
2018-08-25T07:02:57.225Z,99273.45
2018-08-25T07:05:23.235Z,99281.19
2018-08-25T07:07:49.195Z,99272.30
2018-08-25T07:10:15.178Z,99273.43
2018-08-25T07:12:41.148Z,99272.62
2018-08-25T07:15:07.099Z,99274.05
2018-08-25T07:17:33.077Z,99274.05
2018-08-25T07:19:59.062Z,99275.27
2018-08-25T07:22:25.029Z,99273.30
2018-08-25T07:24:50.993Z,99271.41
2018-08-25T07:27:16.952Z,99279.56
2018-08-25T07:29:42.922Z,99284.61
2018-08-25T07:32:08.907Z,99281.41
2018-08-25T07:34:34.845Z,99286.71
2018-08-25T07:37:00.797Z,99293.45
2018-08-25T07:39:26.753Z,99298.58
2018-08-25T07:41:52.713Z,99303.70
2018-08-25T07:44:18.676Z,99306.22
2018-08-25T07:46:47.941Z,99309.45
2018-08-25T07:49:13.880Z,99311.19
2018-08-25T07:51:39.847Z,99308.31
2018-08-25T07:54:05.835Z,99302.70
2018-08-25T07:56:31.812Z,99297.08
2018-08-25T07:58:57.855Z,99299.66
2018-08-25T08:01:23.828Z,99297.78
2018-08-25T08:03:49.801Z,99295.61
2018-08-25T08:06:15.869Z,99297.99
2018-08-25T08:08:41.805Z,99296.95
2018-08-25T08:11:07.803Z,99297.51
2018-08-25T08:13:33.727Z,99294.02
2018-08-25T08:15:59.697Z,99291.92
2018-08-25T08:18:25.654Z,99301.86
2018-08-25T08:20:51.642Z,99301.66
2018-08-25T08:23:17.604Z,99297.71
2018-08-25T08:25:43.665Z,99304.34
2018-08-25T08:28:09.622Z,99303.14
2018-08-25T08:30:35.598Z,99302.95
2018-08-25T08:33:01.574Z,99310.10
2018-08-25T08:35:27.537Z,99304.78
2018-08-25T08:37:53.523Z,99302.05
2018-08-25T08:40:19.485Z,99308.31
2018-08-25T08:42:45.448Z,99310.88
2018-08-25T08:45:11.400Z,99308.39
2018-08-25T08:47:37.385Z,99312.02
2018-08-25T08:50:03.509Z,99302.95
2018-08-25T08:52:29.392Z,99299.63
2018-08-25T08:54:55.372Z,99298.53
2018-08-25T08:57:21.302Z,99302.70
2018-08-25T08:59:47.294Z,99302.89
2018-08-25T09:02:13.254Z,99298.86
2018-08-25T09:04:39.213Z,99307.42
2018-08-25T09:07:05.151Z,99310.10
2018-08-25T09:09:31.090Z,99301.86
2018-08-25T09:11:57.133Z,99295.43
2018-08-25T09:14:23.054Z,99298.98
2018-08-25T09:16:49.005Z,99295.44
2018-08-25T09:19:15.034Z,99291.27
2018-08-25T09:21:41.017Z,99291.17
2018-08-25T09:24:06.971Z,99286.00
2018-08-25T09:26:32.928Z,99285.78
2018-08-25T09:28:58.884Z,99286.08
2018-08-25T09:31:24.844Z,99281.63
2018-08-25T09:33:50.778Z,99288.03
2018-08-25T09:36:16.748Z,99273.73
2018-08-25T09:38:42.674Z,99281.91
2018-08-25T09:41:08.701Z,99279.49
2018-08-25T09:43:34.639Z,99277.75
2018-08-25T09:46:00.601Z,99281.81
2018-08-25T09:48:26.562Z,99274.05
2018-08-25T09:50:52.608Z,99283.73
2018-08-25T09:53:18.606Z,99284.36
2018-08-25T09:55:44.517Z,99279.49
2018-08-25T09:58:10.457Z,99277.16
2018-08-25T10:00:36.398Z,99286.08
2018-08-25T10:03:02.342Z,99277.87
2018-08-25T10:05:28.348Z,99277.55
2018-08-25T10:07:54.332Z,99272.38
2018-08-25T10:10:20.293Z,99273.40
2018-08-25T10:12:46.258Z,99263.45
2018-08-25T10:15:12.232Z,99264.34
2018-08-25T10:17:38.207Z,99264.39
2018-08-25T10:20:04.184Z,99269.98
2018-08-25T10:22:30.161Z,99274.66
2018-08-25T10:24:56.108Z,99276.64
2018-08-25T10:27:22.054Z,99276.91
2018-08-25T10:29:48.002Z,99281.62
2018-08-25T10:32:13.976Z,99280.66
2018-08-25T10:34:39.926Z,99280.81
2018-08-25T10:37:05.915Z,99281.52
2018-08-25T10:39:31.938Z,99277.64
2018-08-25T10:41:57.945Z,99272.98
2018-08-25T10:44:28.127Z,99273.32
2018-08-25T10:46:54.169Z,99267.33
2018-08-25T10:49:20.148Z,99272.63
2018-08-25T10:51:46.092Z,99265.80
2018-08-25T10:54:12.073Z,99268.03
2018-08-25T10:56:38.094Z,99265.61
2018-08-25T10:59:04.061Z,99261.16
2018-08-25T11:01:30.012Z,99255.37
2018-08-25T11:03:55.978Z,99259.35
2018-08-25T11:06:21.942Z,99259.63
2018-08-25T11:08:48.108Z,99257.05
2018-08-25T11:11:14.009Z,99259.57
2018-08-25T11:13:40.061Z,99262.30
2018-08-25T11:16:11.300Z,99264.05
2018-08-25T11:18:37.272Z,99272.48
2018-08-25T11:21:03.251Z,99272.81
2018-08-25T11:23:29.223Z,99268.49
2018-08-25T11:25:55.180Z,99272.96
2018-08-25T11:28:21.156Z,99267.56
2018-08-25T11:30:47.143Z,99267.28
2018-08-25T11:33:13.110Z,99265.52
2018-08-25T11:35:39.061Z,99264.59
2018-08-25T11:38:05.070Z,99262.23
2018-08-25T11:40:31.019Z,99268.23
2018-08-25T11:42:56.970Z,99264.34
2018-08-25T11:45:22.996Z,99256.63
2018-08-25T11:47:49.006Z,99257.06
2018-08-25T11:50:14.979Z,99257.92
2018-08-25T11:52:40.961Z,99258.92
2018-08-25T11:55:06.934Z,99261.46
2018-08-25T11:57:32.900Z,99258.58
2018-08-25T11:59:58.854Z,99267.02
2018-08-25T12:02:27.799Z,99263.80
2018-08-25T12:04:50.791Z,99255.69
2018-08-25T12:07:16.756Z,99261.80
2018-08-25T12:09:42.716Z,99252.23
2018-08-25T12:12:08.670Z,99260.56
2018-08-25T12:14:34.636Z,99266.25
2018-08-25T12:17:00.594Z,99262.81
2018-08-25T12:19:26.539Z,99264.30
2018-08-25T12:21:52.507Z,99264.19
2018-08-25T12:24:18.495Z,99256.94
2018-08-25T12:26:44.441Z,99256.20
2018-08-25T12:29:10.424Z,99268.92
2018-08-25T12:31:36.414Z,99265.05
2018-08-25T12:34:02.401Z,99254.47
2018-08-25T12:36:28.365Z,99266.14
2018-08-25T12:38:56.342Z,99264.51
2018-08-25T12:41:22.391Z,99262.48
2018-08-25T12:43:48.382Z,99260.11
2018-08-25T12:46:14.332Z,99255.18
2018-08-25T12:48:40.356Z,99257.62
2018-08-25T12:51:06.289Z,99258.17
2018-08-25T12:53:32.273Z,99254.66
2018-08-25T12:55:58.291Z,99260.25
2018-08-25T12:58:24.248Z,99268.42
2018-08-25T13:00:50.214Z,99273.02
2018-08-25T13:03:16.255Z,99261.73
2018-08-25T13:05:42.228Z,99267.95
2018-08-25T13:08:08.167Z,99275.50
2018-08-25T13:10:34.132Z,99273.32
2018-08-25T13:13:00.125Z,99271.05
2018-08-25T13:15:26.110Z,99275.70
2018-08-25T13:17:52.252Z,99272.64
2018-08-25T13:20:18.269Z,99275.02
2018-08-25T13:22:44.223Z,99272.28
2018-08-25T13:25:10.213Z,99271.73
2018-08-25T13:27:36.179Z,99269.24
2018-08-25T13:30:02.131Z,99270.25
2018-08-25T13:32:28.095Z,99272.03
2018-08-25T13:34:54.046Z,99275.00
2018-08-25T13:37:20.004Z,99273.91
2018-08-25T13:39:45.977Z,99274.52
2018-08-25T13:42:11.933Z,99274.31
2018-08-25T13:44:38.077Z,99275.13
2018-08-25T13:47:04.062Z,99277.23
2018-08-25T13:49:30.103Z,99282.39
2018-08-25T13:51:56.062Z,99283.91
2018-08-25T13:54:22.084Z,99283.56
2018-08-25T13:56:48.038Z,99288.67
2018-08-25T13:59:14.233Z,99297.70
2018-08-25T14:01:40.169Z,99303.37
2018-08-25T14:04:06.182Z,99311.79
2018-08-25T14:06:32.162Z,99313.48
2018-08-25T14:08:58.114Z,99316.69
2018-08-25T14:11:24.077Z,99315.87
2018-08-25T14:13:50.027Z,99316.34
2018-08-25T14:16:16.163Z,99309.73
2018-08-25T14:18:42.025Z,99315.70
2018-08-25T14:21:07.992Z,99312.31
2018-08-25T14:23:33.968Z,99314.39
2018-08-25T14:25:59.937Z,99319.14
2018-08-25T14:28:25.889Z,99314.22
2018-08-25T14:30:51.866Z,99310.06
2018-08-25T14:33:17.816Z,99312.53
2018-08-25T14:35:43.838Z,99312.83
2018-08-25T14:38:09.901Z,99310.70
2018-08-25T14:40:35.900Z,99314.45
2018-08-25T14:43:01.842Z,99311.29
2018-08-25T14:45:27.854Z,99309.01
2018-08-25T14:47:53.809Z,99297.70
2018-08-25T14:50:19.820Z,99301.47
2018-08-25T14:52:45.784Z,99309.35
2018-08-25T14:55:11.740Z,99303.03
2018-08-25T14:57:37.693Z,99299.58
2018-08-25T15:00:03.905Z,99303.54
2018-08-25T15:02:29.912Z,99311.83
2018-08-25T15:04:55.865Z,99302.66
2018-08-25T15:07:21.828Z,99262.23
2018-08-25T15:12:19.509Z,99308.56
2018-08-25T15:14:45.623Z,99304.70
2018-08-25T15:17:11.765Z,99304.02
2018-08-25T15:19:37.842Z,99304.06
2018-08-25T15:22:04.035Z,99299.25
2018-08-25T15:24:29.990Z,99308.20
2018-08-25T15:26:55.991Z,99303.20
2018-08-25T15:29:22.050Z,99300.27
2018-08-25T15:31:49.072Z,99304.70
2018-08-25T15:34:15.020Z,99302.45
2018-08-25T15:36:41.026Z,99305.03
2018-08-25T15:39:07.029Z,99311.09
2018-08-25T15:41:32.990Z,99307.11
2018-08-25T15:43:58.937Z,99313.70
2018-08-25T15:46:24.914Z,99305.19
2018-08-25T15:48:50.857Z,99307.08
2018-08-25T15:51:16.853Z,99308.94
2018-08-25T15:53:42.830Z,99308.91
2018-08-25T15:56:08.965Z,99307.44
2018-08-25T15:58:35.946Z,99307.55
2018-08-25T16:01:01.997Z,99302.03
2018-08-25T16:03:28.020Z,99303.95
2018-08-25T16:05:54.073Z,99307.36
2018-08-25T16:08:20.073Z,99298.89
2018-08-25T16:10:46.097Z,99299.57
2018-08-25T16:13:12.089Z,99306.70
2018-08-25T16:15:38.153Z,99302.63
2018-08-25T16:18:04.178Z,99298.31
2018-08-25T16:20:31.250Z,99297.33
2018-08-25T16:22:57.275Z,99297.70
2018-08-25T16:25:23.349Z,99292.69
2018-08-25T16:27:49.379Z,99299.67
2018-08-25T16:30:15.494Z,99297.19
2018-08-25T16:32:41.492Z,99296.38
2018-08-25T16:35:07.540Z,99298.98
2018-08-25T16:37:34.584Z,99297.44
2018-08-25T16:40:00.615Z,99304.24
2018-08-25T16:42:26.664Z,99302.84
2018-08-25T16:44:54.701Z,99301.11
2018-08-25T16:47:21.771Z,99293.89
2018-08-25T16:49:47.841Z,99298.77
2018-08-25T16:52:13.922Z,99274.97
2018-08-25T16:54:39.941Z,99302.06
2018-08-25T16:57:05.970Z,99299.48
2018-08-25T16:59:32.000Z,99305.72
2018-08-25T17:01:58.064Z,99308.50
2018-08-25T17:04:24.119Z,99309.80
2018-08-25T17:06:50.211Z,99316.47
2018-08-25T17:09:16.284Z,99320.70
2018-08-25T17:11:42.284Z,99318.17
2018-08-25T17:14:08.242Z,99315.69
2018-08-25T17:16:35.285Z,99312.24
2018-08-25T17:19:01.320Z,99316.48
2018-08-25T17:21:30.425Z,99320.86
2018-08-25T17:23:56.409Z,99318.50
2018-08-25T17:26:22.390Z,99316.48
2018-08-25T17:28:48.332Z,99314.80
2018-08-25T17:31:14.290Z,99318.09
2018-08-25T17:33:40.286Z,99312.72
2018-08-25T17:36:06.263Z,99307.39
2018-08-25T17:38:32.228Z,99306.89
2018-08-25T17:40:58.170Z,99320.16
2018-08-25T17:43:24.106Z,99326.16
2018-08-25T17:45:50.068Z,99324.77
2018-08-25T17:48:16.043Z,99328.64
2018-08-25T17:50:41.987Z,99332.33
2018-08-25T17:53:07.949Z,99332.48
2018-08-25T17:55:33.908Z,99327.87
2018-08-25T17:57:59.849Z,99326.61
2018-08-25T18:00:25.793Z,99331.97
2018-08-25T18:02:51.792Z,99336.77
2018-08-25T18:05:17.750Z,99342.73
2018-08-25T18:07:43.732Z,99354.81
2018-08-25T18:10:09.672Z,99353.94
2018-08-25T18:12:35.651Z,99356.12
2018-08-25T18:15:01.581Z,99359.88
2018-08-25T18:17:27.562Z,99368.48
2018-08-25T18:19:53.541Z,99376.06
2018-08-25T18:22:19.531Z,99383.63
2018-08-25T18:24:45.513Z,99387.16
2018-08-25T18:27:11.485Z,99386.52
2018-08-25T18:29:37.488Z,99391.98
2018-08-25T18:32:03.552Z,99401.22
2018-08-25T18:34:29.493Z,99405.13
2018-08-25T18:36:55.570Z,99408.47
2018-08-25T18:39:21.521Z,99403.41
2018-08-25T18:41:47.567Z,99400.78
2018-08-25T18:44:13.541Z,99411.00
2018-08-25T18:46:39.526Z,99417.61
2018-08-25T18:49:05.534Z,99424.62
2018-08-25T18:51:34.854Z,99421.13
2018-08-25T18:54:00.820Z,99427.18
2018-08-25T18:56:26.902Z,99431.58
2018-08-25T18:58:52.879Z,99438.79
2018-08-25T19:01:18.975Z,99441.53
2018-08-25T19:03:44.950Z,99438.34
2018-08-25T19:06:10.990Z,99441.80
2018-08-25T19:08:36.996Z,99438.95
2018-08-25T19:11:02.904Z,99445.72
2018-08-25T19:13:28.888Z,99447.56
2018-08-25T19:15:55.913Z,99457.81
2018-08-25T19:18:21.877Z,99463.91
2018-08-25T19:20:47.846Z,99461.02
2018-08-25T19:23:13.821Z,99464.16
2018-08-25T19:25:39.766Z,99470.98
2018-08-25T19:28:05.715Z,99468.83
2018-08-25T19:30:31.665Z,99477.75
2018-08-25T19:32:57.647Z,99475.02
2018-08-25T19:35:23.732Z,99478.48
2018-08-25T19:37:49.690Z,99472.59
2018-08-25T19:40:15.720Z,99476.20
2018-08-25T19:42:41.698Z,99472.16
2018-08-25T19:45:07.691Z,99482.07
2018-08-25T19:47:33.679Z,99485.02
2018-08-25T19:49:59.735Z,99483.61
2018-08-25T19:52:25.674Z,99487.39
2018-08-25T19:54:51.647Z,99496.58
2018-08-25T19:57:17.597Z,99505.55
2018-08-25T19:59:43.559Z,99494.00
2018-08-25T20:02:09.533Z,99506.35
2018-08-25T20:04:35.503Z,99509.94
2018-08-25T20:07:01.461Z,99506.27
2018-08-25T20:09:27.532Z,99503.08
2018-08-25T20:11:53.477Z,99496.22
2018-08-25T20:14:19.659Z,99472.72
2018-08-25T20:16:45.612Z,99496.22
2018-08-25T20:19:11.711Z,99497.84
2018-08-25T20:21:37.666Z,99504.36
2018-08-25T20:24:03.653Z,99511.61
2018-08-25T20:26:29.645Z,99520.27
2018-08-25T20:28:55.631Z,99519.06
2018-08-25T20:31:21.585Z,99517.95
2018-08-25T20:33:47.631Z,99522.75
2018-08-25T20:36:13.574Z,99520.34
2018-08-25T20:38:39.519Z,99517.10
2018-08-25T20:41:05.522Z,99528.58
2018-08-25T20:43:31.470Z,99530.55
2018-08-25T20:45:57.543Z,99529.20
2018-08-25T20:48:23.428Z,99534.40
2018-08-25T20:50:49.415Z,99532.39
2018-08-25T20:53:15.449Z,99529.19
2018-08-25T20:55:41.396Z,99530.66
2018-08-25T20:58:07.470Z,99533.29
2018-08-25T21:00:33.444Z,99530.39
2018-08-25T21:02:59.441Z,99536.83
2018-08-25T21:05:25.430Z,99540.66
2018-08-25T21:07:51.449Z,99549.41
2018-08-25T21:10:17.492Z,99552.14
2018-08-25T21:12:43.460Z,99548.33
2018-08-25T21:15:09.447Z,99543.91
2018-08-25T21:17:35.429Z,99483.21
2018-08-25T21:20:01.609Z,99545.39
2018-08-25T21:22:27.592Z,99552.68
2018-08-25T21:24:53.553Z,99550.55
2018-08-25T21:27:19.491Z,99556.82
2018-08-25T21:29:45.448Z,99550.15
2018-08-25T21:32:11.511Z,99555.70
2018-08-25T21:34:37.496Z,99561.40
2018-08-25T21:37:03.455Z,99559.55
2018-08-25T21:39:29.407Z,99562.30
2018-08-25T21:41:55.380Z,99568.56
2018-08-25T21:44:21.338Z,99574.09
2018-08-25T21:46:47.287Z,99576.13
2018-08-25T21:49:13.242Z,99584.61
2018-08-25T21:51:39.204Z,99594.03
2018-08-25T21:54:05.155Z,99592.71
2018-08-25T21:56:31.107Z,99598.38
2018-08-25T21:58:57.088Z,99605.20
2018-08-25T22:01:23.093Z,99602.69
2018-08-25T22:03:49.077Z,99602.05
2018-08-25T22:06:15.042Z,99606.84
2018-08-25T22:08:41.052Z,99605.95
2018-08-25T22:11:07.045Z,99606.78
2018-08-25T22:13:33.026Z,99607.39
2018-08-25T22:15:58.991Z,99601.31
2018-08-25T22:18:24.931Z,99603.73
2018-08-25T22:20:50.924Z,99603.36
2018-08-25T22:23:16.860Z,99602.03
2018-08-25T22:25:42.891Z,99605.30
2018-08-25T22:28:08.864Z,99604.01
2018-08-25T22:30:34.802Z,99604.53
2018-08-25T22:33:00.753Z,99602.31
2018-08-25T22:35:26.711Z,99603.63
2018-08-25T22:37:52.663Z,99599.52
2018-08-25T22:40:18.602Z,99607.91
2018-08-25T22:42:44.580Z,99611.86
2018-08-25T22:45:10.520Z,99615.70
2018-08-25T22:47:36.472Z,99608.16
2018-08-25T22:50:02.439Z,99614.03
2018-08-25T22:52:28.384Z,99620.77
2018-08-25T22:54:54.349Z,99617.26
2018-08-25T22:57:20.318Z,99615.51
2018-08-25T22:59:46.270Z,99611.70
2018-08-25T23:02:12.221Z,99612.23
2018-08-25T23:04:38.173Z,99615.19
2018-08-25T23:07:04.128Z,99609.23
2018-08-25T23:09:30.093Z,99614.95
2018-08-25T23:11:56.148Z,99616.34
2018-08-25T23:14:22.080Z,99611.66
2018-08-25T23:16:48.030Z,99621.33
2018-08-25T23:19:13.979Z,99619.47
2018-08-25T23:21:39.949Z,99619.61
2018-08-25T23:24:05.900Z,99618.62
2018-08-25T23:26:31.868Z,99625.27
2018-08-25T23:28:57.884Z,99619.20
2018-08-25T23:31:23.820Z,99623.89
2018-08-25T23:33:49.752Z,99620.45
2018-08-25T23:36:15.698Z,99622.69
2018-08-25T23:38:41.625Z,99627.53
2018-08-25T23:41:07.565Z,99629.43
2018-08-25T23:43:33.500Z,99624.30
2018-08-25T23:45:59.456Z,99630.17
2018-08-25T23:48:25.426Z,99623.32
2018-08-25T23:50:51.363Z,99613.95
2018-08-25T23:53:17.321Z,99612.77
2018-08-25T23:55:43.266Z,99620.13
2018-08-25T23:58:09.272Z,99630.92
